Time;durP1;ratioP1;P1;durP2;ratioP2;P2;SDS_P1;SDS_P2;PMS_P1;PMS_P2;Temp;Humidity;BMP_temperature;BMP_pressure;BME280_temperature;BME280_humidity;BME280_pressure;Samples;Min_cycle;Max_cycle;Signal;HPM_P1;HPM_P2
2023/02/17 00:02:08;;;;;;;5.67;2.77;;;11.50;98.00;;;;;;5031097;28;21016;-67
2023/02/17 00:04:37;;;;;;;15.33;2.80;;;11.50;98.00;;;;;;5030851;28;20455;-67
2023/02/17 00:07:07;;;;;;;6.27;2.50;;;11.50;98.00;;;;;;5030935;28;20508;-68
2023/02/17 00:09:34;;;;;;;7.73;3.00;;;11.50;98.00;;;;;;5030882;28;21042;-68
2023/02/17 00:12:04;;;;;;;3.57;2.13;;;11.50;98.00;;;;;;5029604;28;20485;-67
2023/02/17 00:14:31;;;;;;;4.63;2.33;;;11.40;98.00;;;;;;5029941;28;20451;-67
2023/02/17 00:16:58;;;;;;;5.70;2.60;;;11.50;98.00;;;;;;5030847;28;20947;-68
2023/02/17 00:19:25;;;;;;;7.23;2.73;;;11.50;98.00;;;;;;5031034;28;20454;-68
2023/02/17 00:21:56;;;;;;;8.83;2.97;;;11.50;98.00;;;;;;5030906;28;20466;-67
2023/02/17 00:24:23;;;;;;;5.77;2.83;;;11.50;98.00;;;;;;5030967;28;20846;-68
2023/02/17 00:26:50;;;;;;;5.20;2.20;;;11.50;98.00;;;;;;5030848;28;20462;-68
2023/02/17 00:29:18;;;;;;;3.80;2.20;;;11.50;98.00;;;;;;5033936;28;20465;-68
2023/02/17 00:31:45;;;;;;;8.40;2.70;;;11.60;98.00;;;;;;5035043;28;20491;-68
2023/02/17 00:34:12;;;;;;;4.80;2.40;;;11.60;98.00;;;;;;5034608;28;20459;-68
2023/02/17 00:36:40;;;;;;;4.47;2.67;;;11.60;98.00;;;;;;5034453;28;20451;-68
2023/02/17 00:39:09;;;;;;;10.70;2.43;;;11.70;98.00;;;;;;5034439;28;20462;-68
2023/02/17 00:41:36;;;;;;;5.23;2.40;;;11.60;98.00;;;;;;5035838;28;20458;-68
2023/02/17 00:44:03;;;;;;;5.30;2.43;;;11.60;98.00;;;;;;5034732;28;20470;-68
2023/02/17 00:46:30;;;;;;;5.23;2.50;;;11.60;98.00;;;;;;5035380;28;20472;-68
2023/02/17 00:48:58;;;;;;;6.10;2.20;;;11.60;98.00;;;;;;5034964;28;20456;-68
2023/02/17 00:51:26;;;;;;;4.63;2.27;;;11.60;98.00;;;;;;5034430;28;20494;-67
2023/02/17 00:53:53;;;;;;;4.17;2.67;;;11.60;98.00;;;;;;5033964;28;20463;-68
2023/02/17 00:56:23;;;;;;;4.03;2.37;;;11.60;98.00;;;;;;5034424;28;20464;-67
2023/02/17 00:58:51;;;;;;;4.30;2.70;;;11.60;98.00;;;;;;5033506;28;20454;-68
2023/02/17 01:01:18;;;;;;;3.10;2.00;;;11.60;98.00;;;;;;5033470;28;20823;-67
2023/02/17 01:03:45;;;;;;;2.77;2.00;;;11.50;98.00;;;;;;5034265;28;20474;-67
2023/02/17 01:06:21;;;;;;;5.37;2.63;;;11.60;98.00;;;;;;5032579;28;20457;-68
2023/02/17 01:08:48;;;;;;;7.10;2.53;;;11.60;98.00;;;;;;5033944;28;20468;-67
2023/02/17 01:11:17;;;;;;;3.10;2.10;;;11.60;98.00;;;;;;5033716;28;20471;-68
2023/02/17 01:13:46;;;;;;;2.53;1.83;;;11.60;98.00;;;;;;5032630;28;20971;-68
2023/02/17 01:16:18;;;;;;;4.13;2.00;;;11.60;98.00;;;;;;5033877;28;20465;-68
2023/02/17 01:18:45;;;;;;;4.50;1.97;;;11.60;98.00;;;;;;5033879;28;20510;-68
2023/02/17 01:21:16;;;;;;;4.00;2.27;;;11.60;98.00;;;;;;5033776;28;20458;-68
2023/02/17 01:23:44;;;;;;;7.10;2.27;;;11.50;98.00;;;;;;5033875;28;20826;-67
2023/02/17 01:26:14;;;;;;;6.47;2.70;;;11.50;98.00;;;;;;5033091;28;20966;-68
2023/02/17 01:28:46;;;;;;;5.43;2.30;;;11.50;98.00;;;;;;5034214;28;20470;-68
2023/02/17 01:31:20;;;;;;;4.40;2.40;;;11.50;98.00;;;;;;5034142;28;20534;-68
2023/02/17 01:33:52;;;;;;;3.40;1.83;;;11.50;98.00;;;;;;5032867;28;20968;-68
2023/02/17 01:36:25;;;;;;;4.17;2.23;;;11.60;98.00;;;;;;5032532;28;20465;-67
2023/02/17 01:38:52;;;;;;;2.90;2.30;;;11.60;98.00;;;;;;5033594;28;20465;-67
2023/02/17 01:41:25;;;;;;;3.63;2.37;;;11.50;98.00;;;;;;5033597;28;20880;-67
2023/02/17 01:44:14;;;;;;;6.60;2.73;;;11.50;98.00;;;;;;5033179;28;20548;-68
2023/02/17 01:46:43;;;;;;;3.10;2.27;;;11.50;98.00;;;;;;5033386;28;20459;-68
2023/02/17 01:49:26;;;;;;;4.40;2.27;;;11.50;98.00;;;;;;5033250;28;20463;-69
2023/02/17 01:51:57;;;;;;;4.00;2.57;;;11.60;98.00;;;;;;5033090;28;20515;-67
2023/02/17 01:54:29;;;;;;;6.20;2.20;;;11.60;98.00;;;;;;5032189;28;20468;-68
2023/02/17 01:56:58;;;;;;;4.77;1.80;;;11.50;98.00;;;;;;5033405;28;20834;-68
2023/02/17 01:59:30;;;;;;;3.00;2.17;;;11.60;98.00;;;;;;5032993;28;20464;-67
2023/02/17 02:02:00;;;;;;;4.57;1.97;;;11.60;98.00;;;;;;5033093;28;20468;-68
2023/02/17 02:04:31;;;;;;;5.00;2.30;;;11.50;98.00;;;;;;5033671;28;20456;-67
2023/02/17 02:06:59;;;;;;;2.90;2.20;;;11.50;98.00;;;;;;5032847;28;20463;-68
2023/02/17 02:09:31;;;;;;;3.10;1.93;;;11.50;98.00;;;;;;5032727;28;20468;-67
2023/02/17 02:12:00;;;;;;;3.93;1.90;;;11.60;98.00;;;;;;5032743;28;20867;-67
2023/02/17 02:14:29;;;;;;;5.20;2.43;;;11.50;98.00;;;;;;5032967;28;20846;-68
2023/02/17 02:17:04;;;;;;;3.60;2.33;;;11.50;98.00;;;;;;5032685;28;20461;-67
2023/02/17 02:20:01;;;;;;;4.60;2.47;;;11.60;98.00;;;;;;5032472;28;20463;-68
2023/02/17 02:22:48;;;;;;;2.70;1.93;;;11.50;98.00;;;;;;5015185;28;20817;-67
2023/02/17 02:25:30;;;;;;;4.80;2.60;;;11.50;98.00;;;;;;5031247;28;20466;-67
2023/02/17 02:28:09;;;;;;;2.77;2.00;;;11.50;98.00;;;;;;5032325;28;20471;-68
2023/02/17 02:31:08;;;;;;;2.23;2.00;;;11.50;98.00;;;;;;5032561;28;20489;-68
2023/02/17 02:33:41;;;;;;;3.10;2.33;;;11.50;98.00;;;;;;5032367;28;20494;-67
2023/02/17 02:36:13;;;;;;;3.10;1.93;;;11.50;98.00;;;;;;5032440;28;20462;-68
2023/02/17 02:38:46;;;;;;;2.20;1.90;;;11.50;98.00;;;;;;5032253;28;20471;-67
2023/02/17 02:41:17;;;;;;;5.90;2.80;;;11.50;98.00;;;;;;5031042;28;20453;-67
2023/02/17 02:43:52;;;;;;;3.37;2.03;;;11.40;98.00;;;;;;5032170;28;20790;-67
2023/02/17 02:46:19;;;;;;;4.90;2.33;;;11.40;98.00;;;;;;5032169;28;20450;-68
2023/02/17 02:48:49;;;;;;;3.93;2.30;;;11.40;98.00;;;;;;5032210;28;20470;-67
2023/02/17 02:51:29;;;;;;;3.50;2.07;;;11.40;98.00;;;;;;5031668;28;20827;-67
2023/02/17 02:54:21;;;;;;;4.67;1.83;;;11.40;98.00;;;;;;5032204;28;20822;-67
2023/02/17 02:57:05;;;;;;;4.93;2.20;;;11.40;98.00;;;;;;5032166;28;20454;-67
2023/02/17 02:59:45;;;;;;;3.03;2.20;;;11.40;98.00;;;;;;5031901;28;20863;-68
2023/02/17 03:02:22;;;;;;;2.80;1.70;;;11.40;98.00;;;;;;5031818;28;20458;-68
2023/02/17 03:04:58;;;;;;;3.53;2.20;;;11.40;98.00;;;;;;5031609;28;20556;-68
2023/02/17 03:07:28;;;;;;;4.00;1.80;;;11.40;98.00;;;;;;5031846;28;20458;-68
2023/02/17 03:09:58;;;;;;;4.70;2.47;;;11.40;98.00;;;;;;5031484;28;20475;-68
2023/02/17 03:12:26;;;;;;;5.50;2.00;;;11.40;98.00;;;;;;5031594;28;20535;-68
2023/02/17 03:14:58;;;;;;;5.00;2.50;;;11.40;98.00;;;;;;5031549;28;20881;-68
2023/02/17 03:17:26;;;;;;;6.13;1.93;;;11.40;98.00;;;;;;5031684;28;20535;-68
2023/02/17 03:19:55;;;;;;;4.70;2.10;;;11.40;98.00;;;;;;5031187;28;20470;-67
2023/02/17 03:22:24;;;;;;;4.67;2.60;;;11.40;98.00;;;;;;5031687;28;20480;-68
2023/02/17 03:24:51;;;;;;;4.73;2.47;;;11.40;98.00;;;;;;5031365;28;20512;-67
2023/02/17 03:27:18;;;;;;;4.50;2.20;;;11.30;98.00;;;;;;5031491;28;20470;-68
2023/02/17 03:29:45;;;;;;;5.20;2.40;;;11.40;98.00;;;;;;5031260;28;20469;-68
2023/02/17 03:32:12;;;;;;;4.30;2.43;;;11.40;98.00;;;;;;5031263;28;20479;-67
2023/02/17 03:34:40;;;;;;;5.13;2.07;;;11.30;98.00;;;;;;5031263;28;20456;-68
2023/02/17 03:37:08;;;;;;;3.70;2.10;;;11.30;98.00;;;;;;5031221;28;20462;-67
2023/02/17 03:39:35;;;;;;;3.60;2.20;;;11.40;98.00;;;;;;5031369;28;20492;-67
2023/02/17 03:42:03;;;;;;;3.30;2.10;;;11.40;98.00;;;;;;5031288;28;20982;-67
2023/02/17 03:44:30;;;;;;;3.80;2.10;;;11.40;98.00;;;;;;5031260;28;20452;-68
2023/02/17 03:46:57;;;;;;;4.40;2.43;;;11.40;98.00;;;;;;5031222;28;20457;-67
2023/02/17 03:49:24;;;;;;;3.90;2.10;;;11.40;98.00;;;;;;5031294;28;20455;-68
2023/02/17 03:51:51;;;;;;;3.10;1.70;;;11.40;98.00;;;;;;5031273;28;20464;-67
2023/02/17 03:54:19;;;;;;;3.70;1.90;;;11.40;98.00;;;;;;5031245;28;20946;-68
2023/02/17 03:56:48;;;;;;;4.57;2.40;;;11.30;98.00;;;;;;5031145;28;20495;-67
2023/02/17 03:59:16;;;;;;;4.13;2.10;;;11.30;98.00;;;;;;5029607;28;20481;-67
2023/02/17 04:01:44;;;;;;;5.90;2.00;;;11.30;98.00;;;;;;5031208;28;20523;-67
2023/02/17 04:04:11;;;;;;;3.53;2.60;;;11.30;98.00;;;;;;5034576;28;20455;-67
2023/02/17 04:06:39;;;;;;;6.67;1.90;;;11.20;98.00;;;;;;5035414;28;20472;-67
2023/02/17 04:09:06;;;;;;;3.87;2.13;;;11.20;98.00;;;;;;5033589;28;20456;-68
2023/02/17 04:11:35;;;;;;;4.00;2.30;;;11.20;98.00;;;;;;5035114;28;20460;-67
2023/02/17 04:14:05;;;;;;;3.20;1.93;;;11.20;98.00;;;;;;5034697;28;20550;-67
2023/02/17 04:16:32;;;;;;;3.83;2.33;;;11.20;98.00;;;;;;5034972;28;20464;-67
2023/02/17 04:18:59;;;;;;;4.30;2.00;;;11.20;98.00;;;;;;5034694;28;20458;-67
2023/02/17 04:21:26;;;;;;;2.10;1.57;;;11.30;98.00;;;;;;5034937;28;20459;-67
2023/02/17 04:23:54;;;;;;;3.97;2.13;;;11.30;98.00;;;;;;5034533;28;20451;-67
2023/02/17 04:26:21;;;;;;;3.73;2.37;;;11.30;98.00;;;;;;5034837;28;20486;-68
2023/02/17 04:28:49;;;;;;;4.73;2.43;;;11.20;98.00;;;;;;5033382;28;21023;-68
2023/02/17 04:31:17;;;;;;;3.07;2.17;;;11.30;98.00;;;;;;5034640;28;20468;-67
2023/02/17 04:33:44;;;;;;;7.93;2.10;;;11.20;98.00;;;;;;5033203;28;20529;-68
2023/02/17 04:36:12;;;;;;;4.90;2.00;;;11.20;98.00;;;;;;5033342;28;20461;-67
2023/02/17 04:38:40;;;;;;;6.30;2.47;;;11.20;98.00;;;;;;5034550;28;20519;-67
2023/02/17 04:41:07;;;;;;;4.07;2.20;;;11.20;98.00;;;;;;5034432;28;20477;-67
2023/02/17 04:43:34;;;;;;;8.20;3.30;;;11.20;98.00;;;;;;5034574;28;20468;-67
2023/02/17 04:46:03;;;;;;;4.20;1.90;;;11.20;98.00;;;;;;5034321;28;20967;-67
2023/02/17 04:48:30;;;;;;;7.40;2.57;;;11.20;98.00;;;;;;5034622;28;20461;-68
2023/02/17 04:50:57;;;;;;;3.50;2.40;;;11.20;98.00;;;;;;5034536;28;20472;-68
2023/02/17 04:53:25;;;;;;;8.77;3.50;;;11.20;98.00;;;;;;5034265;28;20488;-67
2023/02/17 04:55:53;;;;;;;2.73;1.80;;;11.10;98.00;;;;;;5033938;28;20995;-67
2023/02/17 04:58:20;;;;;;;2.10;1.80;;;11.10;98.00;;;;;;5034346;28;20811;-68
2023/02/17 05:00:48;;;;;;;3.70;2.00;;;11.20;98.00;;;;;;5033990;28;20478;-68
2023/02/17 05:03:17;;;;;;;4.40;1.80;;;11.10;98.00;;;;;;5034046;28;20458;-68
2023/02/17 05:05:44;;;;;;;2.70;1.60;;;11.20;98.00;;;;;;5034191;28;20470;-67
2023/02/17 05:08:11;;;;;;;3.20;2.30;;;11.20;98.00;;;;;;5033777;28;20458;-68
2023/02/17 05:10:39;;;;;;;6.70;2.23;;;11.20;98.00;;;;;;5033782;28;20468;-69
2023/02/17 05:13:06;;;;;;;6.20;2.57;;;11.10;98.00;;;;;;5033216;28;20489;-67
2023/02/17 05:15:33;;;;;;;4.60;2.07;;;11.10;98.00;;;;;;5032388;28;20470;-68
2023/02/17 05:18:00;;;;;;;4.13;2.30;;;11.20;98.00;;;;;;5033654;28;20451;-68
2023/02/17 05:20:28;;;;;;;3.87;1.93;;;11.10;98.00;;;;;;5032673;28;20456;-68
2023/02/17 05:22:55;;;;;;;3.40;2.13;;;11.20;98.00;;;;;;5033595;28;20454;-68
2023/02/17 05:25:23;;;;;;;3.60;2.10;;;11.20;98.00;;;;;;5033640;28;20467;-68
2023/02/17 05:27:50;;;;;;;3.00;1.80;;;11.10;98.00;;;;;;5033572;28;20878;-68
2023/02/17 05:30:17;;;;;;;4.87;2.10;;;11.10;98.00;;;;;;5032067;28;20467;-68
2023/02/17 05:32:47;;;;;;;4.57;2.30;;;11.10;98.00;;;;;;5033657;28;20520;-67
2023/02/17 05:35:14;;;;;;;3.80;2.23;;;11.10;98.00;;;;;;5033446;28;20465;-67
2023/02/17 05:37:42;;;;;;;3.10;1.90;;;11.10;98.00;;;;;;5033500;28;21112;-68
2023/02/17 05:40:10;;;;;;;3.30;2.07;;;11.10;98.00;;;;;;5033148;28;20839;-69
2023/02/17 05:42:37;;;;;;;3.83;2.03;;;11.10;98.00;;;;;;5033357;28;20552;-68
2023/02/17 05:45:05;;;;;;;3.17;1.73;;;11.10;98.00;;;;;;5033458;28;20469;-67
2023/02/17 05:47:34;;;;;;;5.47;2.27;;;11.00;98.00;;;;;;5033582;28;20474;-68
2023/02/17 05:50:01;;;;;;;3.80;2.10;;;11.00;98.00;;;;;;5033261;28;21124;-68
2023/02/17 05:52:28;;;;;;;4.30;2.07;;;11.00;98.00;;;;;;5033289;28;20943;-67
2023/02/17 05:54:57;;;;;;;9.00;2.87;;;11.00;98.00;;;;;;5032801;28;20467;-68
2023/02/17 05:57:25;;;;;;;2.87;1.80;;;11.00;98.00;;;;;;5033160;28;20475;-67
2023/02/17 05:59:52;;;;;;;3.60;2.03;;;11.00;98.00;;;;;;5032930;28;20447;-68
2023/02/17 06:02:20;;;;;;;5.30;2.97;;;11.00;98.00;;;;;;5032055;28;20471;-68
2023/02/17 06:04:47;;;;;;;2.80;1.83;;;10.90;98.00;;;;;;5033209;28;20470;-67
2023/02/17 06:07:14;;;;;;;3.30;2.10;;;10.90;98.00;;;;;;5032867;28;20907;-67
2023/02/17 06:09:41;;;;;;;5.90;2.30;;;10.90;98.00;;;;;;5032734;28;20489;-67
2023/02/17 06:12:10;;;;;;;3.90;2.03;;;10.90;98.00;;;;;;5033709;28;20873;-68
2023/02/17 06:14:37;;;;;;;4.73;2.40;;;10.90;98.00;;;;;;5033206;28;20491;-68
2023/02/17 06:17:04;;;;;;;5.07;1.83;;;10.90;98.00;;;;;;5033456;28;20468;-68
2023/02/17 06:19:31;;;;;;;4.97;2.80;;;10.90;98.00;;;;;;5033196;28;20466;-68
2023/02/17 06:21:58;;;;;;;2.93;1.77;;;11.00;98.00;;;;;;5032611;28;20460;-68
2023/02/17 06:24:25;;;;;;;4.83;2.27;;;11.00;98.00;;;;;;5032761;28;20492;-68
2023/02/17 06:26:52;;;;;;;2.37;1.87;;;11.00;98.00;;;;;;5030612;28;20976;-68
2023/02/17 06:29:22;;;;;;;3.53;1.97;;;11.00;98.00;;;;;;5032326;28;20940;-67
2023/02/17 06:31:49;;;;;;;3.40;2.00;;;10.90;98.00;;;;;;5032449;28;21001;-67
2023/02/17 06:34:16;;;;;;;2.47;1.80;;;10.90;98.00;;;;;;5032300;28;20900;-67
2023/02/17 06:36:44;;;;;;;3.57;2.37;;;11.00;98.00;;;;;;5032453;28;20508;-68
2023/02/17 06:39:11;;;;;;;3.00;1.80;;;10.90;98.00;;;;;;5032183;28;20473;-68
2023/02/17 06:41:39;;;;;;;5.63;2.30;;;10.90;98.00;;;;;;5032491;28;20461;-68
2023/02/17 06:44:06;;;;;;;3.13;1.63;;;10.90;98.00;;;;;;5032209;28;20465;-67
2023/02/17 06:46:34;;;;;;;3.20;1.90;;;10.90;98.00;;;;;;5031385;28;20744;-67
2023/02/17 06:49:01;;;;;;;5.57;2.23;;;10.80;98.00;;;;;;5031992;28;20791;-66
2023/02/17 06:51:29;;;;;;;1.97;1.50;;;10.80;98.00;;;;;;5032181;28;20468;-66
2023/02/17 06:53:56;;;;;;;3.23;2.10;;;10.80;98.00;;;;;;5031651;28;20496;-67
2023/02/17 06:56:24;;;;;;;3.03;2.07;;;10.90;98.00;;;;;;5030788;28;21049;-67
2023/02/17 06:58:51;;;;;;;2.40;1.77;;;11.00;98.00;;;;;;5031951;28;20469;-67
2023/02/17 07:01:21;;;;;;;3.97;2.20;;;11.00;98.00;;;;;;5031873;28;20467;-68
2023/02/17 07:03:51;;;;;;;2.10;1.70;;;11.00;98.00;;;;;;5031881;28;20486;-75
2023/02/17 07:06:18;;;;;;;2.50;1.80;;;10.90;98.00;;;;;;5031591;28;20466;-76
2023/02/17 07:08:46;;;;;;;2.43;1.57;;;10.90;98.00;;;;;;5031772;28;20466;-76
2023/02/17 07:11:15;;;;;;;5.90;2.00;;;11.00;98.00;;;;;;5031776;28;20570;-76
2023/02/17 07:13:43;;;;;;;2.90;2.10;;;11.10;98.00;;;;;;5031522;28;20494;-75
2023/02/17 07:16:13;;;;;;;3.70;2.03;;;11.10;98.00;;;;;;5031609;28;20496;-77
2023/02/17 07:18:41;;;;;;;3.20;2.10;;;11.20;98.00;;;;;;5031631;28;20470;-76
2023/02/17 07:21:10;;;;;;;2.47;1.80;;;11.30;98.00;;;;;;5031601;28;20461;-75
2023/02/17 07:23:38;;;;;;;3.03;1.90;;;11.30;98.00;;;;;;5031489;28;20463;-75
2023/02/17 07:26:08;;;;;;;4.23;2.10;;;11.40;98.00;;;;;;5031612;28;20645;-76
2023/02/17 07:28:35;;;;;;;2.93;1.90;;;11.30;98.00;;;;;;5031306;28;20516;-75
2023/02/17 07:31:06;;;;;;;3.30;1.77;;;11.30;98.00;;;;;;5031449;28;20466;-76
2023/02/17 07:33:34;;;;;;;2.57;1.90;;;11.30;98.00;;;;;;5031718;28;20490;-75
2023/02/17 07:36:05;;;;;;;3.60;1.80;;;11.30;98.00;;;;;;5031417;28;20465;-75
2023/02/17 07:38:34;;;;;;;3.00;1.87;;;11.30;98.00;;;;;;5031388;28;20461;-76
2023/02/17 07:41:05;;;;;;;2.10;1.60;;;11.20;98.00;;;;;;5031524;28;20477;-76
2023/02/17 07:43:33;;;;;;;10.33;2.80;;;11.20;98.00;;;;;;5031910;28;20456;-71
2023/02/17 07:46:00;;;;;;;3.47;2.10;;;11.30;98.00;;;;;;5030217;28;20476;-71
2023/02/17 07:48:28;;;;;;;3.37;1.90;;;11.30;98.00;;;;;;5031313;28;20464;-70
2023/02/17 07:50:55;;;;;;;4.20;1.90;;;11.30;98.00;;;;;;5031112;28;20487;-72
2023/02/17 07:53:23;;;;;;;4.60;2.30;;;11.30;98.00;;;;;;5031553;28;20466;-75
2023/02/17 07:55:52;;;;;;;3.30;1.93;;;11.40;98.00;;;;;;5031400;28;20479;-75
2023/02/17 07:58:19;;;;;;;4.43;1.93;;;11.40;98.00;;;;;;5031752;28;20463;-76
2023/02/17 08:00:47;;;;;;;1.80;1.63;;;11.50;98.00;;;;;;5031529;28;20862;-76
2023/02/17 08:03:14;;;;;;;2.30;1.67;;;11.50;98.00;;;;;;5031137;28;20467;-75
2023/02/17 08:05:42;;;;;;;2.17;1.57;;;11.50;98.00;;;;;;5031018;28;21024;-75
2023/02/17 08:13:40;;;;;;;2.60;1.73;;;11.40;98.00;;;;;;5029985;28;20485;-76
2023/02/17 08:16:08;;;;;;;3.27;1.80;;;11.50;98.00;;;;;;5030936;28;20459;-76
2023/02/17 08:18:35;;;;;;;2.17;1.70;;;11.40;98.00;;;;;;5030863;28;20468;-76
2023/02/17 08:21:02;;;;;;;2.20;1.83;;;11.40;98.00;;;;;;5030890;28;20541;-76
2023/02/17 08:23:29;;;;;;;3.23;2.20;;;11.40;98.00;;;;;;5030860;28;20462;-75
2023/02/17 08:25:59;;;;;;;3.53;2.10;;;11.50;98.00;;;;;;5030964;28;20464;-76
2023/02/17 08:28:26;;;;;;;2.27;1.57;;;11.50;98.00;;;;;;5030783;28;20556;-76
2023/02/17 08:30:53;;;;;;;5.80;2.03;;;11.60;98.00;;;;;;5030781;28;20473;-77
2023/02/17 08:33:21;;;;;;;2.77;1.70;;;11.70;98.00;;;;;;5031091;28;20541;-76
2023/02/17 08:35:49;;;;;;;2.77;1.63;;;11.70;98.00;;;;;;5030857;28;20460;-76
2023/02/17 08:38:16;;;;;;;3.50;1.90;;;11.80;98.00;;;;;;5031086;28;20459;-76
2023/02/17 08:40:44;;;;;;;2.30;1.87;;;12.00;98.00;;;;;;5031294;28;20473;-75
2023/02/17 08:43:14;;;;;;;2.50;2.07;;;12.10;98.00;;;;;;5029357;28;20534;-75
2023/02/17 08:45:41;;;;;;;4.90;1.90;;;12.10;98.00;;;;;;5030845;28;20951;-75
2023/02/17 08:48:09;;;;;;;2.93;2.07;;;12.10;98.00;;;;;;5030828;28;20471;-76
2023/02/17 08:50:36;;;;;;;2.43;1.80;;;12.10;98.00;;;;;;5033869;28;20465;-76
2023/02/17 08:53:03;;;;;;;2.37;1.70;;;12.10;98.00;;;;;;5033174;28;20547;-75
2023/02/17 08:55:30;;;;;;;2.47;1.83;;;12.10;98.00;;;;;;5033963;28;20512;-76
2023/02/17 08:57:58;;;;;;;4.30;1.97;;;12.20;98.00;;;;;;5034375;28;20463;-75
2023/02/17 09:00:30;;;;;;;6.17;2.67;;;12.20;98.00;;;;;;5034065;28;20559;-75
2023/02/17 09:02:58;;;;;;;1.50;1.37;;;12.20;98.00;;;;;;5033909;28;20460;-76
2023/02/17 09:05:26;;;;;;;3.17;1.87;;;12.20;98.00;;;;;;5033816;28;20673;-75
2023/02/17 09:07:53;;;;;;;3.23;1.70;;;12.20;98.00;;;;;;5033881;28;20466;-75
2023/02/17 09:10:21;;;;;;;4.20;2.17;;;12.20;98.00;;;;;;5033371;28;20473;-76
2023/02/17 09:12:48;;;;;;;2.67;1.80;;;12.20;98.00;;;;;;5033905;28;20450;-76
2023/02/17 09:15:15;;;;;;;2.47;1.50;;;12.20;98.00;;;;;;5033510;28;20992;-76
2023/02/17 09:17:44;;;;;;;3.30;1.70;;;12.30;98.00;;;;;;5033840;28;20559;-76
2023/02/17 09:20:12;;;;;;;2.37;1.80;;;12.30;98.00;;;;;;5033544;28;20471;-76
2023/02/17 09:22:42;;;;;;;3.60;1.70;;;12.40;98.00;;;;;;5033626;28;20458;-76
2023/02/17 09:25:10;;;;;;;6.10;2.63;;;12.50;98.00;;;;;;5032280;28;20452;-76
2023/02/17 09:27:37;;;;;;;3.50;1.47;;;12.40;98.00;;;;;;5033700;28;20460;-76
2023/02/17 09:30:06;;;;;;;2.23;1.63;;;12.30;98.00;;;;;;5033410;28;20462;-76
2023/02/17 09:32:33;;;;;;;2.50;1.60;;;12.30;98.00;;;;;;5033683;28;20463;-76
2023/02/17 09:35:04;;;;;;;2.60;2.10;;;12.30;98.00;;;;;;5033503;28;20504;-76
2023/02/17 09:37:32;;;;;;;2.63;1.60;;;12.20;98.00;;;;;;5033839;28;20453;-76
2023/02/17 09:39:59;;;;;;;3.07;1.60;;;12.20;98.00;;;;;;5033449;28;20462;-76
2023/02/17 09:42:28;;;;;;;2.60;1.90;;;12.20;98.00;;;;;;5033303;28;20451;-76
2023/02/17 09:45:00;;;;;;;1.80;1.50;;;12.10;98.00;;;;;;5032986;28;20457;-76
2023/02/17 09:47:32;;;;;;;1.73;1.47;;;12.20;98.00;;;;;;5033082;28;20454;-76
2023/02/17 09:50:06;;;;;;;2.23;1.70;;;12.20;98.00;;;;;;5033232;28;20472;-77
2023/02/17 09:52:38;;;;;;;2.90;1.70;;;12.20;98.00;;;;;;5031844;28;20835;-76
2023/02/17 09:55:09;;;;;;;3.20;1.60;;;12.20;98.00;;;;;;5032892;28;20541;-76
2023/02/17 09:57:42;;;;;;;1.97;1.50;;;12.20;98.00;;;;;;5033298;28;20467;-76
2023/02/17 10:00:23;;;;;;;4.60;1.60;;;12.20;98.00;;;;;;5033194;28;20490;-76
2023/02/17 10:02:57;;;;;;;2.30;1.70;;;12.30;98.00;;;;;;5034193;28;20466;-76
2023/02/17 10:05:30;;;;;;;2.07;1.57;;;12.50;98.00;;;;;;5033239;28;20468;-76
2023/02/17 10:08:03;;;;;;;2.70;1.60;;;12.40;98.00;;;;;;5033510;28;20459;-76
2023/02/17 10:10:38;;;;;;;2.53;1.30;;;12.40;98.00;;;;;;5033117;28;20496;-76
2023/02/17 10:13:08;;;;;;;2.00;1.40;;;12.50;98.00;;;;;;5033387;28;20456;-77
2023/02/17 10:15:39;;;;;;;3.60;1.40;;;12.60;98.00;;;;;;5033133;28;20482;-76
2023/02/17 10:18:14;;;;;;;3.27;2.00;;;12.60;98.00;;;;;;5033494;28;20998;-76
2023/02/17 10:20:48;;;;;;;2.20;1.53;;;12.80;98.00;;;;;;5033208;28;20480;-76
2023/02/17 10:23:19;;;;;;;1.67;1.50;;;12.90;98.00;;;;;;5033255;28;20485;-77
2023/02/17 10:26:09;;;;;;;2.13;1.60;;;13.00;98.00;;;;;;5032996;28;20466;-76
2023/02/17 10:28:48;;;;;;;2.50;1.80;;;13.00;98.00;;;;;;5033278;28;20872;-76
2023/02/17 10:31:26;;;;;;;2.33;1.70;;;13.10;98.00;;;;;;5032146;28;20459;-77
2023/02/17 10:34:03;;;;;;;2.87;1.93;;;13.20;98.00;;;;;;5032250;28;20482;-77
2023/02/17 10:36:42;;;;;;;4.73;1.83;;;13.30;98.00;;;;;;5031589;28;20816;-77
2023/02/17 10:39:16;;;;;;;8.60;1.83;;;13.30;98.00;;;;;;5031529;28;20835;-77
2023/02/17 10:41:48;;;;;;;3.07;1.80;;;13.20;98.00;;;;;;5032672;28;20820;-77
2023/02/17 10:44:19;;;;;;;2.77;1.70;;;13.30;98.00;;;;;;5032243;28;21090;-77
2023/02/17 10:46:48;;;;;;;2.50;1.70;;;13.30;98.00;;;;;;5032517;28;20950;-77
2023/02/17 10:49:23;;;;;;;2.80;1.50;;;13.40;98.00;;;;;;5032405;28;20964;-77
2023/02/17 10:51:52;;;;;;;2.20;1.80;;;13.40;98.00;;;;;;5032317;28;20472;-77
2023/02/17 10:54:34;;;;;;;2.97;1.80;;;13.50;98.00;;;;;;5031971;28;20457;-77
2023/02/17 10:57:05;;;;;;;2.20;1.80;;;13.70;98.00;;;;;;5032096;28;20487;-76
2023/02/17 10:59:39;;;;;;;4.63;1.80;;;13.80;98.00;;;;;;5031928;28;20449;-77
2023/02/17 11:02:17;;;;;;;2.03;1.53;;;14.00;98.00;;;;;;5032089;28;20485;-77
2023/02/17 11:04:46;;;;;;;2.60;1.67;;;14.00;98.00;;;;;;5032053;28;20845;-77
2023/02/17 11:07:17;;;;;;;3.07;1.80;;;14.20;98.00;;;;;;5031993;28;20544;-77
2023/02/17 11:09:48;;;;;;;5.67;1.70;;;14.30;98.00;;;;;;5031663;28;20987;-77
2023/02/17 11:12:18;;;;;;;2.40;1.73;;;14.60;98.00;;;;;;5031281;28;20969;-77
2023/02/17 11:14:48;;;;;;;2.37;1.60;;;14.90;98.00;;;;;;5031890;28;20492;-77
2023/02/17 11:17:21;;;;;;;1.93;1.43;;;14.90;98.00;;;;;;5031899;28;20482;-77
2023/02/17 11:20:05;;;;;;;3.23;1.97;;;15.00;98.00;;;;;;5031718;28;20971;-77
2023/02/17 11:22:39;;;;;;;2.63;1.53;;;15.00;98.00;;;;;;5030642;28;20461;-77
2023/02/17 11:25:21;;;;;;;1.40;1.30;;;15.00;98.00;;;;;;5031514;28;20455;-77
2023/02/17 11:27:51;;;;;;;2.10;1.60;;;15.00;98.00;;;;;;5030442;28;20469;-77
2023/02/17 11:30:21;;;;;;;1.53;1.30;;;14.90;98.00;;;;;;5031670;28;20554;-77
2023/02/17 11:32:50;;;;;;;2.50;1.80;;;14.80;98.00;;;;;;5031868;28;20462;-77
2023/02/17 11:35:28;;;;;;;2.17;1.67;;;14.50;98.00;;;;;;5032102;28;20491;-77
2023/02/17 11:38:04;;;;;;;2.23;1.67;;;14.30;98.00;;;;;;5032021;28;20519;-77
2023/02/17 11:40:33;;;;;;;2.80;1.90;;;14.10;98.00;;;;;;5032049;28;20469;-76
2023/02/17 11:43:02;;;;;;;3.50;1.80;;;14.00;98.00;;;;;;5031975;28;20460;-77
2023/02/17 11:45:38;;;;;;;3.40;1.70;;;13.90;98.00;;;;;;5031845;28;20549;-77
2023/02/17 11:48:31;;;;;;;1.67;1.50;;;13.90;98.00;;;;;;5031803;28;20460;-77
2023/02/17 11:51:02;;;;;;;2.50;1.70;;;13.90;98.00;;;;;;5031905;28;20550;-77
2023/02/17 11:53:47;;;;;;;2.33;1.40;;;13.80;98.00;;;;;;5031966;28;20472;-77
2023/02/17 11:56:17;;;;;;;2.10;1.60;;;13.70;98.00;;;;;;5031626;28;20489;-77
2023/02/17 11:59:03;;;;;;;2.50;1.77;;;13.70;98.00;;;;;;5031649;28;20468;-76
2023/02/17 12:01:46;;;;;;;1.47;1.40;;;13.80;98.00;;;;;;5031862;28;20469;-77
2023/02/17 12:04:33;;;;;;;1.47;1.23;;;13.70;98.00;;;;;;5031951;28;20471;-76
2023/02/17 12:07:39;;;;;;;4.03;2.17;;;13.70;98.00;;;;;;5032343;28;20472;-77
2023/02/17 12:10:17;;;;;;;3.23;1.60;;;13.70;98.00;;;;;;5016317;28;20485;-78
2023/02/17 12:13:04;;;;;;;2.30;1.50;;;13.70;98.00;;;;;;5032003;28;20928;-77
2023/02/17 12:15:58;;;;;;;3.00;1.63;;;13.70;98.00;;;;;;5031625;28;20512;-77
2023/02/17 12:18:40;;;;;;;2.40;1.47;;;13.70;98.00;;;;;;5030591;28;20485;-77
2023/02/17 12:21:12;;;;;;;2.10;1.40;;;13.60;98.00;;;;;;5031862;28;21022;-77
2023/02/17 12:24:07;;;;;;;1.97;1.63;;;13.70;98.00;;;;;;5032291;28;20458;-77
2023/02/17 12:26:42;;;;;;;1.97;1.33;;;13.70;98.00;;;;;;5035779;28;20465;-77
2023/02/17 12:29:23;;;;;;;3.00;1.50;;;13.70;98.00;;;;;;5034484;28;20466;-77
2023/02/17 12:32:41;;;;;;;1.70;1.50;;;13.60;98.00;;;;;;5035722;28;20459;-77
2023/02/17 12:35:18;;;;;;;1.60;1.33;;;13.60;98.00;;;;;;5034999;28;20482;-77
2023/02/17 12:37:53;;;;;;;1.97;1.27;;;13.60;98.00;;;;;;5035549;28;20548;-77
2023/02/17 12:40:32;;;;;;;2.63;1.60;;;13.60;98.00;;;;;;5034936;28;20468;-77
2023/02/17 12:43:09;;;;;;;2.37;1.43;;;13.60;98.00;;;;;;5035220;28;20478;-77
2023/02/17 12:45:41;;;;;;;1.97;1.40;;;13.50;98.00;;;;;;5034670;28;20473;-76
2023/02/17 12:48:16;;;;;;;2.73;1.47;;;13.50;98.00;;;;;;5034567;28;20478;-75
2023/02/17 12:50:52;;;;;;;1.70;1.30;;;13.50;98.00;;;;;;5034511;28;20540;-74
2023/02/17 12:53:26;;;;;;;1.70;1.40;;;13.60;98.00;;;;;;5034696;28;20471;-74
2023/02/17 12:55:58;;;;;;;2.17;1.53;;;13.60;98.00;;;;;;5034362;28;20499;-75
2023/02/17 12:58:29;;;;;;;2.23;1.50;;;13.60;98.00;;;;;;5033074;28;20457;-74
2023/02/17 13:01:04;;;;;;;1.60;1.40;;;13.60;98.00;;;;;;5034332;28;20459;-74
2023/02/17 13:03:33;;;;;;;4.10;1.40;;;13.70;98.00;;;;;;5034491;28;20555;-75
2023/02/17 13:06:06;;;;;;;2.00;1.60;;;13.70;98.00;;;;;;5034081;28;20495;-75
2023/02/17 13:08:41;;;;;;;1.60;1.33;;;13.80;98.00;;;;;;5034214;28;20458;-74
2023/02/17 13:11:12;;;;;;;1.80;1.60;;;13.70;98.00;;;;;;5033846;28;20478;-74